首页
METAR-TAF:

METAR-TAF

机场 :

利雅德, 沙特阿拉伯

纬度: 24-43N, 经度: 046-44E, 海拔: 635米

当前天气观测

该预报发布于34分钟前的12:00 UTC
风速7节,风向
温度 41°C
湿度 9%
气压 1008 hPa
能见度10公里或以上
1500米以下无云,无积雨云

METAR: OERY 191200Z 35007KT CAVOK 41/02 Q1008

时间: 15:34 (12:34 UTC)

预报

该预报发布于1小时和34分钟前的11:00 UTC
预报有效从19日的 12点(UTC)到 20日的 18点(UTC)
风速15节,风向
能見度: 7000
短暂存在
从 19日的 12点(UTC)到 19日的 18点(UTC)
能見度: 4000
高吹尘
成为
从 19日的 18点(UTC)到 19日的 20点(UTC)
风速6节,风向

TAF: OERY 191100Z 1912/2018 36015KT 7000 NSC TEMPO 1912/1918 4000 BLDU BECMG 1918/1920 09006KT

超过4000个机场的气象观测和天气预报(METAR&TAF报告)。

可查询的气象台以黄色和红色小点在地图上表示。

将鼠标移到小点上方,可查看气象台名称。

然后点击查看天气观测和预报。

如需切换地图:点击带黑十字的绿色按钮放大地图;点击带横线的绿色按钮缩小地图;或者点击绿色箭头查看邻近地区的地图。


METAR-TAF: